Latest Weather Observations for Grove

IDT60801

Issued at 10:31 pm EST Sunday 19 April 2015 (issued every 30 minutes, with the page automatically refreshed every 10 minutes)

About weather observations | Map of weather stations | Latest weather observations for TAS | Other Formats
Station Details ID: 094220 Name: GROVE (RESEARCH STATION) Lat: -42.99 Lon: 147.07 Height: 65.0 m
Data from the previous 72 hours. | See also: Recent months at Grove
Date/Time
EST
Temp
°C
App
Temp
°C
Dew
Point
Rel
Hum
%
Delta-T
°C
Wind Press
QNH
hPa
Press
MSL
hPa
Rain
since 9 am
mm
Dir
 
Spd
km/h
Gust
km/h
Spd
kts
Gust
kts
19/10:30pm 1.1 -1.5 0.8 98 0.1 ENE 4 6 2 3 - - 0.0
19/10:00pm 1.0 -2.2 0.5 96 0.2 N 7 9 4 5 - - 0.0
19/09:30pm 1.6 -1.4 0.8 94 0.3 ENE 6 7 3 4 - - 0.0
19/09:00pm 2.3 -0.6 1.3 93 0.4 E 6 7 3 4 - - 0.0
19/08:30pm 2.3 -0.6 1.3 93 0.4 N 6 7 3 4 - - 0.0
19/08:00pm 3.7 0.3 1.7 87 0.8 ENE 9 13 5 7 - - 0.0
19/07:30pm 3.5 0.1 2.0 90 0.6 NE 9 11 5 6 - - 0.0
19/07:00pm 5.1 1.7 1.6 78 1.4 NNE 9 11 5 6 - - 0.0
19/06:30pm 5.5 3.4 2.0 78 1.4 SSE 2 6 1 3 - - 0.0
19/06:00pm 7.7 4.5 1.0 62 2.7 WSW 7 15 4 8 - - 0.0
19/05:30pm 9.0 4.6 0.3 54 3.5 WSW 13 22 7 12 - - 0.0
19/05:00pm 9.3 4.9 0.4 54 3.6 SW 13 20 7 11 - - 0.0
19/04:30pm 10.5 4.8 -0.8 45 4.5 WSW 19 32 10 17 - - 0.0
19/04:00pm 11.2 5.3 -2.2 39 5.2 W 19 32 10 17 - - 0.0
19/03:30pm 11.5 5.6 -2.1 38 5.3 WSW 19 32 10 17 - - 0.0
19/03:00pm 11.8 6.4 -1.6 39 5.3 SW 17 24 9 13 - - 0.0
19/02:30pm 11.9 6.1 -1.4 39 5.3 WSW 19 26 10 14 - - 0.0
19/02:00pm 11.6 5.4 -3.5 34 5.7 WSW 20 32 11 17 - - 0.0
19/01:30pm 11.7 5.5 -4.5 32 6.0 WSW 19 37 10 20 - - 0.0
19/01:00pm 10.4 5.2 -2.8 39 5.0 SW 15 24 8 13 - - 0.0
19/12:30pm 11.2 5.5 -3.4 36 5.5 WSW 17 28 9 15 - - 0.0
19/12:00pm 10.7 5.5 -0.2 47 4.4 WSW 17 33 9 18 - - 0.0
19/11:30am 10.7 5.6 0.5 49 4.2 W 17 26 9 14 - - 0.0
19/11:00am 9.6 6.1 1.4 56 3.4 SSW 9 17 5 9 - - 0.0
19/10:30am 8.3 4.7 0.9 59 3.0 SSW 9 15 5 8 - - 0.0
19/10:00am 7.7 2.5 2.2 68 2.3 WSW 19 28 10 15 - - 0.0
19/09:30am 8.2 4.0 1.6 63 2.7 WSW 13 22 7 12 - - 0.0
19/09:00am 7.4 2.7 1.2 65 2.5 WSW 15 20 8 11 - - 1.2
19/08:30am 7.3 2.9 2.5 71 2.0 W 15 24 8 13 - - 1.2
19/08:00am 5.7 3.5 3.6 86 0.9 NW 4 11 2 6 - - 1.2
19/07:30am 4.1 2.0 3.9 99 0.1 N 4 7 2 4 - - 1.2
19/07:00am 4.1 0.6 3.6 97 0.2 ENE 11 15 6 8 - - 1.2
19/06:30am 4.3 2.6 4.1 99 0.1 N 2 7 1 4 - - 1.2
19/06:00am 3.4 2.0 3.4 100 0.0 CALM 0 9 0 5 - - 1.2
19/05:30am 4.4 1.7 3.7 95 0.3 NE 7 11 4 6 - - 1.2
19/05:00am 5.3 4.1 4.4 94 0.4 CALM 0 0 0 0 - - 1.0
19/04:30am 5.7 3.3 4.5 92 0.5 ESE 6 9 3 5 - - 1.0
19/04:00am 6.6 4.1 4.5 86 0.9 WSW 7 13 4 7 - - 1.0
19/03:30am 7.2 4.4 5.2 87 0.9 WSW 9 26 5 14 - - 0.8
19/03:00am 7.3 6.0 6.0 91 0.6 SSW 2 11 1 6 - - 0.6
19/02:30am 7.3 5.6 5.7 89 0.7 SSW 4 7 2 4 - - 0.4
19/02:00am 6.5 4.1 5.4 93 0.5 SW 7 13 4 7 - - 0.4
19/01:30am 5.2 2.3 4.5 95 0.3 E 9 11 5 6 - - 0.0
19/01:00am 5.2 2.7 4.7 97 0.2 E 7 11 4 6 - - 0.0
19/12:30am 4.7 1.7 4.2 97 0.2 N 9 11 5 6 - - 0.0
19/12:00am 4.8 3.2 4.3 97 0.2 SSE 2 7 1 4 - - 0.0
 
Date/Time
EST
Temp
°C
App
Temp
°C
Dew
Point
Rel
Hum
%
Delta-T
°C
Wind Press
QNH
hPa
Press
MSL
hPa
Rain
since 9 am
mm
Dir
 
Spd
km/h
Gust
km/h
Spd
kts
Gust
kts
18/11:30pm 4.1 2.3 3.4 95 0.3 NE 2 7 1 4 - - 0.0
18/11:00pm 5.3 4.1 4.6 95 0.3 CALM 0 0 0 0 - - 0.0
18/10:30pm 5.9 4.3 4.7 92 0.5 S 2 6 1 3 - - 0.0
18/10:00pm 7.1 4.9 5.5 89 0.7 NW 6 7 3 4 - - 0.0
18/09:30pm 8.1 5.7 5.2 82 1.3 S 7 11 4 6 - - 0.0
18/09:00pm 9.1 6.8 5.6 79 1.6 S 7 9 4 5 - - 0.0
18/08:30pm 10.4 6.7 4.6 67 2.6 SSW 13 20 7 11 - - 0.0
18/08:00pm 11.0 7.9 3.5 60 3.3 W 9 15 5 8 - - 0.0
18/07:30pm 11.6 7.2 2.6 54 3.9 W 15 20 8 11 - - 0.0
18/07:00pm 11.6 7.9 2.1 52 4.1 WNW 11 19 6 10 - - 0.0
18/06:30pm 11.7 8.5 2.8 54 3.9 WSW 9 13 5 7 - - 0.0
18/06:00pm 12.0 7.6 2.6 52 4.1 NW 15 33 8 18 - - 0.0
18/05:30pm 11.8 7.2 3.5 57 3.7 NW 17 26 9 14 - - 0.0
18/05:00pm 11.9 7.4 4.1 59 3.5 W 17 26 9 14 - - 0.0
18/04:30pm 11.7 9.6 6.7 71 2.4 SSW 7 13 4 7 - - 0.0
18/04:00pm 12.0 7.4 6.3 68 2.7 SW 20 35 11 19 - - 0.0
18/03:30pm 12.1 7.7 7.4 73 2.3 SW 20 35 11 19 - - 0.0
18/03:00pm 12.1 9.0 8.9 81 1.6 S 15 26 8 14 - - 0.0
18/02:40pm 13.0 7.2 9.5 79 1.8 SW 30 48 16 26 - - 0.0
18/02:38pm 13.9 7.0 8.8 71 2.6 SW 35 48 19 26 - - 0.0
18/02:30pm 17.4 14.0 7.7 53 4.9 WNW 15 24 8 13 - - 0.0
18/02:00pm 18.8 14.2 5.8 42 6.4 WNW 19 32 10 17 - - 0.0
18/01:30pm 19.5 15.6 5.5 40 6.9 NW 15 26 8 14 - - 0.0
18/01:00pm 20.0 16.5 5.4 38 7.2 WNW 13 32 7 17 - - 0.0
18/12:30pm 19.2 14.8 5.0 39 6.9 WNW 17 37 9 20 - - 0.0
18/12:00pm 19.0 14.2 4.7 39 6.9 W 19 35 10 19 - - 0.0
18/11:30am 19.0 14.9 4.1 37 7.1 WNW 15 28 8 15 - - 0.0
18/11:00am 17.2 13.5 4.3 42 6.1 NE 13 19 7 10 - - 0.0
18/10:30am 17.3 14.1 5.0 44 5.9 N 11 24 6 13 - - 0.0
18/10:00am 16.0 11.9 4.2 45 5.5 NNW 15 22 8 12 - - 0.0
18/09:30am 15.3 10.2 4.1 47 5.2 NNW 20 35 11 19 - - 0.0
18/09:00am 14.6 9.4 3.7 48 5.0 N 20 35 11 19 - - 0.0
18/08:30am 13.9 10.0 3.5 49 4.7 N 13 19 7 10 - - 0.0
18/08:00am 13.1 9.5 3.0 50 4.5 N 11 15 6 8 - - 0.0
18/07:30am 8.4 6.6 3.5 71 2.1 WSW 2 6 1 3 - - 0.0
18/07:00am 8.2 5.0 2.8 69 2.3 NE 9 13 5 7 - - 0.0
18/06:30am 5.4 3.6 3.5 87 0.8 ENE 2 11 1 6 - - 0.0
18/06:00am 7.1 5.1 4.6 84 1.1 WSW 4 9 2 5 - - 0.0
18/05:30am 8.3 5.9 5.2 81 1.4 WNW 7 11 4 6 - - 0.0
18/05:00am 9.4 6.4 3.9 68 2.4 WNW 9 13 5 7 - - 0.0
18/04:30am 7.5 6.6 6.0 90 0.7 CALM 0 6 0 3 - - 0.0
18/04:00am 8.5 6.8 6.1 85 1.1 ENE 4 9 2 5 - - 0.0
18/03:30am 8.8 7.5 6.0 82 1.3 SSW 2 7 1 4 - - 0.0
18/03:00am 9.5 7.4 6.5 81 1.4 W 7 9 4 5 - - 0.0
18/02:30am 9.6 6.7 6.4 80 1.5 SW 11 17 6 9 - - 0.0
18/02:00am 9.8 7.7 6.6 80 1.5 SW 7 11 4 6 - - 0.0
18/01:30am 9.6 7.5 6.6 81 1.4 SSW 7 9 4 5 - - 0.0
18/01:00am 9.1 7.0 6.5 84 1.2 WSW 7 9 4 5 - - 0.0
18/12:30am 9.4 7.4 6.4 81 1.4 W 6 7 3 4 - - 0.0
18/12:00am 9.5 7.3 6.3 80 1.5 W 7 11 4 6 - - 0.0
 
Date/Time
EST
Temp
°C
App
Temp
°C
Dew
Point
Rel
Hum
%
Delta-T
°C
Wind Press
QNH
hPa
Press
MSL
hPa
Rain
since 9 am
mm
Dir
 
Spd
km/h
Gust
km/h
Spd
kts
Gust
kts
17/11:30pm 9.5 7.3 6.0 79 1.6 S 7 9 4 5 - - 0.0
17/11:00pm 11.1 8.8 5.7 69 2.5 NNW 7 13 4 7 - - 0.0
17/10:30pm 10.8 8.1 5.8 71 2.3 WNW 9 15 5 8 - - 0.0
17/10:00pm 10.1 8.0 5.8 74 2.0 W 6 7 3 4 - - 0.0
17/09:30pm 9.3 7.9 5.6 78 1.7 NW 2 7 1 4 - - 0.0
17/09:00pm 9.9 7.5 5.3 73 2.1 WSW 7 11 4 6 - - 0.0
17/08:30pm 10.7 7.6 5.5 70 2.4 SW 11 19 6 10 - - 0.0
17/08:00pm 13.3 10.7 4.4 55 4.1 S 7 11 4 6 - - 0.0
17/07:30pm 10.8 9.0 5.4 69 2.5 WSW 4 9 2 5 - - 0.0
17/07:00pm 11.8 8.9 4.5 61 3.3 W 9 15 5 8 - - 0.0
17/06:30pm 14.5 10.6 3.5 47 5.0 WNW 13 26 7 14 - - 0.0
17/06:00pm 13.4 10.9 5.0 57 3.9 SW 7 13 4 7 - - 0.0
17/05:30pm 14.3 11.4 4.6 52 4.5 WSW 9 17 5 9 - - 0.0
17/05:00pm 15.4 12.5 4.8 49 5.0 W 9 13 5 7 - - 0.0
17/04:30pm 16.8 13.0 3.7 41 6.1 W 13 20 7 11 - - 0.0
17/04:00pm 17.1 14.0 3.6 40 6.3 SW 9 13 5 7 - - 0.0
17/03:30pm 17.8 14.2 2.8 36 6.9 SW 11 15 6 8 - - 0.0
17/03:00pm 19.3 16.1 2.8 33 7.7 W 9 17 5 9 - - 0.0
17/02:30pm 19.7 16.1 2.8 32 7.9 WSW 11 15 6 8 - - 0.0
17/02:00pm 19.6 15.5 2.0 31 8.1 W 13 22 7 12 - - 0.0
17/01:30pm 19.7 15.9 3.7 34 7.6 NW 13 22 7 12 - - 0.0
17/01:00pm 19.6 16.6 3.9 35 7.5 WNW 9 13 5 7 - - 0.0
17/12:30pm 19.1 16.1 4.3 37 7.1 NW 9 15 5 8 - - 0.0
17/12:00pm 18.4 14.7 4.4 39 6.7 NNW 13 20 7 11 - - 0.0
17/11:30am 17.9 14.6 4.8 42 6.3 NW 11 20 6 11 - - 0.0
17/11:00am 16.9 13.3 5.0 45 5.7 NW 13 20 7 11 - - 0.0
17/10:30am 16.5 12.0 4.4 44 5.7 WNW 17 26 9 14 - - 0.0
17/10:00am 16.3 13.6 5.5 48 5.2 W 9 22 5 12 - - 0.0
17/09:30am 15.3 11.7 5.2 51 4.8 WNW 13 19 7 10 - - 0.0
17/09:00am 14.4 10.3 4.5 51 4.6 NNW 15 26 8 14 - - 0.0
17/08:30am 13.4 10.5 4.8 56 4.0 NW 9 19 5 10 - - 0.0
17/08:00am 9.4 7.3 6.8 84 1.2 W 7 13 4 7 - - 0.0
17/07:30am 10.4 7.4 6.1 75 2.0 NNE 11 15 6 8 - - 0.0
17/07:00am 8.5 6.5 6.3 86 1.0 E 6 9 3 5 - - 0.0
17/06:30am 7.2 4.3 6.5 95 0.3 NE 11 17 6 9 - - 0.0
17/06:00am 6.5 3.5 5.8 95 0.3 ENE 11 15 6 8 - - 0.0
17/05:30am 6.7 4.4 5.8 94 0.4 NNE 7 9 4 5 - - 0.0
17/05:00am 6.9 5.3 6.5 97 0.2 W 4 11 2 6 - - 0.0
17/04:30am 7.7 5.7 7.1 96 0.3 NE 7 9 4 5 - - 0.0
17/04:00am 8.4 7.1 7.6 95 0.4 NNW 4 7 2 4 - - 0.0
17/03:30am 9.0 6.9 8.2 95 0.4 NE 9 11 5 6 - - 0.0
17/03:00am 10.4 9.4 9.0 91 0.7 NW 4 7 2 4 - - 0.0
17/02:30am 10.7 10.5 9.1 90 0.8 CALM 0 0 0 0 - - 0.0
17/02:00am 10.6 9.1 9.0 90 0.8 NE 7 9 4 5 - - 0.0
17/01:30am 10.6 8.6 8.8 89 0.9 W 9 15 5 8 - - 0.0
17/01:00am 10.8 9.3 9.0 89 0.9 SW 7 9 4 5 - - 0.0
17/12:30am 10.7 9.7 8.9 89 0.9 NE 4 9 2 5 - - 0.0
17/12:00am 10.7 9.1 8.9 89 0.9 SW 7 13 4 7 - - 0.0
 
Date/Time
EST
Temp
°C
App
Temp
°C
Dew
Point
Rel
Hum
%
Delta-T
°C
Wind Press
QNH
hPa
Press
MSL
hPa
Rain
since 9 am
mm
Dir
 
Spd
km/h
Gust
km/h
Spd
kts
Gust
kts
16/11:30pm 10.7 9.7 8.7 87 1.0 ENE 4 9 2 5 - - 0.0
16/11:00pm 10.5 8.9 8.9 90 0.8 NNE 7 11 4 6 - - 0.0

Other Formats:

Comma delimited format used in spreadsheet applications
http://www.bom.gov.au/fwo/IDT60801/IDT60801.95977.axf

JavaScript Object Notation format (JSON) in row-major order
http://www.bom.gov.au/fwo/IDT60801/IDT60801.95977.json